Time;durP1;ratioP1;P1;durP2;ratioP2;P2;SDS_P1;SDS_P2;PMS_P1;PMS_P2;Temp;Humidity;BMP_temperature;BMP_pressure;BME280_temperature;BME280_humidity;BME280_pressure;Samples;Min_cycle;Max_cycle;Signal;HPM_P1;HPM_P2
2023/06/26 00:02:16;;;;;;;5.30;4.40;;;;;;;21.40;57.00;96704.50;10339822;28;20046;-30
2023/06/26 00:07:17;;;;;;;5.15;4.32;;;;;;;21.50;53.78;96703.56;10354336;28;20031;-31
2023/06/26 00:12:17;;;;;;;4.80;4.30;;;;;;;21.69;53.27;96706.72;10338392;28;20482;-30
2023/06/26 00:17:18;;;;;;;6.10;5.27;;;;;;;21.72;53.33;96702.44;10344607;28;20398;-31
2023/06/26 00:22:18;;;;;;;5.05;3.90;;;;;;;21.62;54.40;96705.09;10330774;28;20406;-30
2023/06/26 00:27:19;;;;;;;4.68;4.25;;;;;;;21.56;54.73;96703.47;10337398;28;20188;-31
2023/06/26 00:32:19;;;;;;;5.20;4.63;;;;;;;21.54;54.54;96705.19;10345493;28;20030;-30
2023/06/26 00:37:21;;;;;;;5.70;5.10;;;;;;;21.54;55.39;96720.47;10343975;28;20025;-31
2023/06/26 00:42:21;;;;;;;5.32;4.82;;;;;;;21.52;54.36;96706.06;10345136;28;20152;-30
2023/06/26 00:47:22;;;;;;;5.43;4.93;;;;;;;21.45;56.19;96709.53;10329140;28;20564;-31
2023/06/26 00:52:23;;;;;;;5.28;4.78;;;;;;;21.48;53.90;96715.44;10335697;28;20065;-30
2023/06/26 00:57:25;;;;;;;5.65;4.35;;;;;;;21.65;52.94;96713.56;10310962;28;20035;-31
2023/06/26 01:02:33;;;;;;;5.00;4.50;;;;;;;21.69;52.94;96719.47;10335762;28;20030;-30
2023/06/26 01:07:36;;;;;;;8.35;5.10;;;;;;;21.60;53.50;96717.88;10348794;28;20528;-30
2023/06/26 01:12:38;;;;;;;5.85;4.72;;;;;;;21.54;54.86;96710.28;10352123;28;20041;-30
2023/06/26 01:17:40;;;;;;;5.80;4.65;;;;;;;21.52;55.06;96721.34;10328848;28;20092;-30
2023/06/26 01:23:05;;;;;;;4.65;4.20;;;;;;;21.46;55.65;96701.91;10363817;28;20065;-30
2023/06/26 01:28:06;;;;;;;5.53;4.97;;;;;;;21.46;55.77;96699.34;10348098;28;20037;-30
2023/06/26 01:33:07;;;;;;;5.30;4.60;;;;;;;21.45;56.00;96705.31;10319773;28;20034;-30
2023/06/26 01:38:16;;;;;;;7.53;4.95;;;;;;;21.50;53.76;96695.06;10342578;28;20509;-30
2023/06/26 01:43:43;;;;;;;6.47;4.93;;;;;;;21.65;53.07;96695.72;10343502;28;20521;-30
2023/06/26 01:49:11;;;;;;;7.82;4.88;;;;;;;21.66;53.45;96689.78;10319936;28;20050;-30
2023/06/26 01:54:17;;;;;;;5.07;4.57;;;;;;;21.58;53.94;96691.56;10327150;28;20517;-30
2023/06/26 01:59:18;;;;;;;8.50;4.90;;;;;;;21.53;54.96;96692.47;10340803;28;20056;-30
2023/06/26 02:04:19;;;;;;;5.13;4.55;;;;;;;21.46;55.75;96681.50;10314755;28;20038;-30
2023/06/26 02:09:20;;;;;;;7.10;4.25;;;;;;;21.44;55.77;96682.38;10308509;28;20391;-31
2023/06/26 02:14:21;;;;;;;6.60;4.50;;;;;;;21.42;55.83;96686.66;10338870;28;20030;-30
2023/06/26 02:19:21;;;;;;;4.50;4.10;;;;;;;21.40;55.90;96685.84;10339473;28;20494;-30
2023/06/26 02:24:21;;;;;;;6.97;5.43;;;;;;;21.47;54.10;96695.94;10353812;28;20284;-30
2023/06/26 02:29:22;;;;;;;5.70;4.57;;;;;;;21.63;53.71;96707.63;10347005;28;20310;-31
2023/06/26 02:34:22;;;;;;;5.57;4.67;;;;;;;21.65;53.58;96698.28;10332443;28;20289;-30
2023/06/26 02:39:22;;;;;;;5.10;4.60;;;;;;;21.56;54.59;96698.38;10331419;28;20038;-31
2023/06/26 02:44:23;;;;;;;5.00;4.50;;;;;;;21.51;54.91;96700.16;10341404;28;20096;-31
2023/06/26 02:49:23;;;;;;;4.90;4.40;;;;;;;21.46;55.69;96696.78;10355777;28;20034;-30
2023/06/26 02:54:24;;;;;;;5.75;4.70;;;;;;;21.46;54.95;96694.25;10326437;28;20034;-30
2023/06/26 02:59:28;;;;;;;4.75;4.25;;;;;;;21.43;55.78;96696.84;10335829;28;20035;-32
2023/06/26 03:04:29;;;;;;;4.45;3.95;;;;;;;21.36;56.41;96689.28;10328282;28;20569;-30
2023/06/26 03:09:29;;;;;;;5.88;4.43;;;;;;;21.39;55.37;96697.72;10322647;28;20030;-30
2023/06/26 03:14:31;;;;;;;4.70;3.90;;;;;;;21.60;53.63;96689.84;10320460;28;20046;-30
2023/06/26 03:19:32;;;;;;;4.03;3.58;;;;;;;21.66;53.70;96694.03;10337848;28;20069;-30
2023/06/26 03:24:49;;;;;;;4.47;4.07;;;;;;;21.54;54.64;96695.00;10342614;28;20061;-30
2023/06/26 03:29:52;;;;;;;4.43;4.03;;;;;;;21.46;55.40;96695.97;10335226;28;20065;-30
2023/06/26 03:34:54;;;;;;;4.50;4.05;;;;;;;21.37;55.80;96702.00;10340027;28;20401;-30
2023/06/26 03:39:55;;;;;;;5.15;4.25;;;;;;;21.35;55.14;96701.19;10328755;28;20044;-32
2023/06/26 03:44:56;;;;;;;5.65;4.78;;;;;;;21.62;54.23;96702.53;10296217;28;20481;-31
2023/06/26 03:49:56;;;;;;;4.70;4.20;;;;;;;21.63;52.60;96707.63;10310296;28;20025;-31
2023/06/26 03:54:58;;;;;;;5.17;4.67;;;;;;;21.64;52.64;96711.84;10309657;28;20323;-31
2023/06/26 03:59:58;;;;;;;5.65;4.18;;;;;;;21.63;52.62;96715.25;10319386;28;20034;-32
2023/06/26 04:05:00;;;;;;;5.87;5.23;;;;;;;21.58;52.62;96717.03;10314159;28;20049;-31
2023/06/26 04:10:00;;;;;;;5.15;4.40;;;;;;;21.58;53.01;96717.03;10321187;28;20027;-31
2023/06/26 04:15:02;;;;;;;5.60;4.68;;;;;;;21.47;53.86;96718.84;10311505;28;20053;-30
2023/06/26 04:20:06;;;;;;;5.88;4.75;;;;;;;21.54;53.30;96730.66;10338606;28;20046;-30
2023/06/26 04:25:06;;;;;;;7.05;4.15;;;;;;;21.54;53.21;96730.66;10333483;28;20057;-30
2023/06/26 04:30:07;;;;;;;4.78;4.22;;;;;;;21.46;53.24;96737.56;10368607;28;20032;-30
2023/06/26 04:35:09;;;;;;;5.13;4.63;;;;;;;21.44;53.63;96734.19;10380525;28;20036;-30
2023/06/26 04:40:11;;;;;;;9.30;4.60;;;;;;;21.39;54.51;96735.09;10362781;28;20728;-30
2023/06/26 04:45:11;;;;;;;5.07;4.40;;;;;;;21.54;53.74;96740.84;10368178;28;20034;-30
2023/06/26 04:50:11;;;;;;;8.63;4.50;;;;;;;21.54;53.94;96730.66;10349552;28;20498;-30
2023/06/26 04:55:12;;;;;;;6.90;3.70;;;;;;;21.52;54.37;96734.94;10339188;28;20045;-31
2023/06/26 05:00:13;;;;;;;8.87;5.50;;;;;;;21.47;54.68;96740.97;10342599;28;20173;-30
2023/06/26 05:05:13;;;;;;;4.70;4.18;;;;;;;21.41;55.31;96729.09;10344504;28;20026;-31
2023/06/26 05:10:14;;;;;;;4.77;3.97;;;;;;;21.38;55.39;96739.34;10335317;28;20026;-30
2023/06/26 05:15:14;;;;;;;5.70;3.60;;;;;;;21.36;55.50;96733.44;10375649;28;20037;-30
2023/06/26 05:20:15;;;;;;;5.03;3.90;;;;;;;21.36;55.76;96730.03;10367451;28;20113;-30
2023/06/26 05:25:15;;;;;;;3.63;3.33;;;;;;;21.36;55.65;96732.56;10335431;28;20498;-30
2023/06/26 05:30:16;;;;;;;11.90;4.90;;;;;;;21.48;55.48;96735.00;10339806;28;20025;-30
2023/06/26 05:35:17;;;;;;;5.22;4.50;;;;;;;21.63;55.18;96725.47;10358424;28;20398;-30
2023/06/26 05:40:18;;;;;;;3.88;3.50;;;;;;;21.62;55.05;96730.56;10373504;28;20486;-30
2023/06/26 05:45:19;;;;;;;4.75;3.85;;;;;;;21.52;55.22;96726.44;10375307;28;20034;-30
2023/06/26 05:50:20;;;;;;;4.17;3.77;;;;;;;21.47;55.55;96729.03;10395898;28;20140;-30
2023/06/26 05:55:20;;;;;;;4.10;3.50;;;;;;;21.44;55.59;96724.00;10374196;28;20091;-32
2023/06/26 06:00:21;;;;;;;3.85;3.42;;;;;;;21.40;55.90;96731.69;10370142;28;20053;-31
2023/06/26 06:05:22;;;;;;;4.60;3.40;;;;;;;21.39;55.92;96725.75;10379418;28;20041;-30
2023/06/26 06:10:22;;;;;;;4.93;4.13;;;;;;;21.39;55.97;96735.94;10388623;28;20092;-30
2023/06/26 06:15:23;;;;;;;4.33;3.93;;;;;;;21.42;55.96;96735.91;10369742;28;20044;-30
2023/06/26 06:20:24;;;;;;;5.13;4.37;;;;;;;21.61;55.54;96723.78;10365474;28;20289;-30
2023/06/26 06:25:24;;;;;;;4.65;3.90;;;;;;;21.67;55.10;96728.84;10391258;28;20281;-30
2023/06/26 06:30:25;;;;;;;4.07;3.47;;;;;;;21.57;55.71;96724.69;10380216;28;20504;-30
2023/06/26 06:35:25;;;;;;;4.43;3.63;;;;;;;21.50;55.69;96726.47;10373666;28;20117;-30
2023/06/26 06:40:26;;;;;;;4.70;3.85;;;;;;;21.46;55.95;96727.38;10374417;28;20405;-30
2023/06/26 06:45:26;;;;;;;3.87;3.17;;;;;;;21.42;56.09;96730.81;10362782;28;20029;-31
2023/06/26 06:50:26;;;;;;;3.27;2.97;;;;;;;21.42;56.11;96732.50;10377427;28;20026;-31
2023/06/26 06:55:27;;;;;;;3.90;3.50;;;;;;;21.40;56.12;96731.69;10381313;28;20405;-30
2023/06/26 07:00:27;;;;;;;3.77;3.37;;;;;;;21.39;56.20;96741.03;10377180;28;20037;-30
2023/06/26 07:05:28;;;;;;;6.13;3.70;;;;;;;21.55;56.02;96732.34;10390873;28;20034;-31
2023/06/26 07:10:29;;;;;;;4.22;3.80;;;;;;;21.67;55.87;96727.16;10380329;28;20299;-31
2023/06/26 07:15:29;;;;;;;3.60;3.08;;;;;;;21.64;55.42;96737.34;10388463;28;20486;-30
2023/06/26 07:20:29;;;;;;;3.45;3.15;;;;;;;21.56;56.36;96745.94;10380026;28;20038;-30
2023/06/26 07:25:30;;;;;;;4.10;3.70;;;;;;;21.49;55.99;96747.69;10363291;28;20502;-30
2023/06/26 07:30:30;;;;;;;4.27;3.87;;;;;;;21.48;56.22;96745.19;10372159;28;20510;-30
2023/06/26 07:35:33;;;;;;;3.47;3.17;;;;;;;21.45;56.16;96740.09;10391804;28;20405;-31
2023/06/26 07:40:33;;;;;;;4.13;3.65;;;;;;;21.42;56.46;96735.91;10378495;28;20068;-30
2023/06/26 07:45:33;;;;;;;4.00;3.47;;;;;;;21.41;56.48;96734.19;10379844;28;20455;-31
2023/06/26 07:50:34;;;;;;;4.00;3.60;;;;;;;21.46;56.58;96731.63;10363374;28;20029;-30
2023/06/26 07:55:34;;;;;;;3.90;3.40;;;;;;;21.65;56.38;96728.84;10384635;28;20506;-31
2023/06/26 08:00:35;;;;;;;4.20;3.53;;;;;;;21.70;55.83;96733.91;10386088;28;20034;-31
2023/06/26 08:05:35;;;;;;;3.78;3.38;;;;;;;21.59;56.11;96726.38;10382934;28;20067;-31
2023/06/26 08:10:36;;;;;;;3.60;3.23;;;;;;;21.54;56.43;96727.25;10387066;28;20038;-30
2023/06/26 08:15:36;;;;;;;5.50;3.40;;;;;;;21.50;56.48;96723.06;10380612;28;20129;-31
2023/06/26 08:20:36;;;;;;;3.50;3.20;;;;;;;21.47;56.58;96726.50;10374963;28;20038;-31
2023/06/26 08:25:37;;;;;;;4.50;3.65;;;;;;;21.47;56.44;96726.50;10377030;28;20038;-30
2023/06/26 08:30:37;;;;;;;4.03;3.63;;;;;;;21.45;56.36;96714.63;10374592;28;20052;-31
2023/06/26 08:35:40;;;;;;;4.37;3.97;;;;;;;21.43;56.49;96712.13;10378667;28;20032;-31
2023/06/26 08:40:41;;;;;;;4.10;3.28;;;;;;;21.61;56.30;96716.13;10369630;28;20030;-30
2023/06/26 08:45:41;;;;;;;4.60;3.67;;;;;;;21.72;56.40;96699.88;10367894;28;20029;-31
2023/06/26 08:50:43;;;;;;;3.60;3.20;;;;;;;21.65;56.46;96707.66;10392507;28;20033;-30
2023/06/26 08:55:44;;;;;;;3.95;3.53;;;;;;;21.57;56.53;96710.25;10368760;28;20285;-31
2023/06/26 09:00:44;;;;;;;3.67;3.38;;;;;;;21.54;56.73;96722.16;10375800;28;20037;-30
2023/06/26 09:05:45;;;;;;;5.38;4.00;;;;;;;21.54;57.19;96728.13;10360490;28;20030;-30
2023/06/26 09:10:45;;;;;;;4.40;3.97;;;;;;;21.51;56.56;96710.34;10375425;28;20026;-30
2023/06/26 09:15:46;;;;;;;4.27;3.87;;;;;;;21.47;56.68;96723.13;10376426;28;20034;-30
2023/06/26 09:20:46;;;;;;;3.88;3.30;;;;;;;21.49;56.94;96731.59;10328188;28;20297;-30
2023/06/26 09:25:47;;;;;;;3.80;3.40;;;;;;;21.58;56.92;96732.34;10335586;28;20042;-31
2023/06/26 09:30:50;;;;;;;3.63;3.33;;;;;;;21.73;56.62;96732.16;10349730;28;20277;-30
2023/06/26 09:35:50;;;;;;;4.05;3.65;;;;;;;21.72;56.31;96747.47;10343676;28;20052;-31
2023/06/26 09:40:51;;;;;;;3.80;3.43;;;;;;;21.64;56.80;96755.16;10334824;28;20029;-30
2023/06/26 09:45:51;;;;;;;3.80;3.40;;;;;;;21.58;56.89;96762.91;10335389;28;20044;-30
2023/06/26 09:50:53;;;;;;;5.90;4.45;;;;;;;21.53;56.98;96764.66;10326798;28;20054;-31
2023/06/26 09:55:53;;;;;;;4.93;4.43;;;;;;;21.53;56.58;96774.84;10326674;28;20581;-30
2023/06/26 10:00:56;;;;;;;4.70;4.20;;;;;;;21.54;57.27;96776.53;10333401;28;20154;-31
2023/06/26 10:05:58;;;;;;;4.13;3.72;;;;;;;21.53;57.14;96785.03;10326707;28;20286;-30
2023/06/26 10:10:58;;;;;;;4.53;4.10;;;;;;;21.51;57.72;96786.75;10341583;28;20398;-31
2023/06/26 10:16:00;;;;;;;4.07;3.67;;;;;;;21.70;57.04;96798.47;10340783;28;20044;-30
2023/06/26 10:21:03;;;;;;;4.20;3.83;;;;;;;21.77;56.99;96810.28;10342372;28;20034;-30
2023/06/26 10:26:05;;;;;;;4.28;3.45;;;;;;;21.68;56.72;96814.63;10332901;28;20402;-30
2023/06/26 10:31:09;;;;;;;3.92;3.35;;;;;;;21.57;57.07;96822.34;10348663;28;20030;-31
2023/06/26 10:36:19;;;;;;;3.55;3.25;;;;;;;21.50;56.91;96825.84;10343243;28;20038;-31
2023/06/26 10:41:21;;;;;;;3.60;3.30;;;;;;;21.48;57.10;96822.44;10344843;28;20109;-30
2023/06/26 10:46:22;;;;;;;3.88;3.47;;;;;;;21.45;57.34;96821.63;10353733;28;20068;-30
2023/06/26 10:51:24;;;;;;;5.30;3.63;;;;;;;21.45;57.02;96830.13;10349778;28;20037;-30
2023/06/26 10:56:47;;;;;;;4.75;3.50;;;;;;;21.45;57.15;96821.63;10351634;28;20517;-30
2023/06/26 11:01:55;;;;;;;4.38;3.75;;;;;;;21.60;57.43;96822.34;10341103;28;20030;-30
2023/06/26 11:07:15;;;;;;;4.00;3.35;;;;;;;21.74;57.41;96828.13;10387149;28;20044;-31
2023/06/26 11:12:34;;;;;;;7.43;3.20;;;;;;;21.64;57.03;96818.03;10375502;28;20037;-30
2023/06/26 11:17:36;;;;;;;4.45;3.10;;;;;;;21.57;57.23;96817.25;10367622;28;20041;-31
2023/06/26 11:22:39;;;;;;;4.13;3.38;;;;;;;21.53;57.50;96813.06;10370367;28;20112;-29
2023/06/26 11:27:40;;;;;;;4.30;3.22;;;;;;;21.53;57.26;96812.19;10369698;28;20109;-33
2023/06/26 11:32:41;;;;;;;5.18;3.17;;;;;;;21.54;57.61;96817.28;10383371;28;20084;-30
2023/06/26 11:37:41;;;;;;;4.43;3.45;;;;;;;21.54;57.50;96816.44;10366574;28;20088;-31
2023/06/26 11:42:42;;;;;;;3.43;3.13;;;;;;;21.52;57.43;96813.06;10375437;28;20485;-31
2023/06/26 11:47:45;;;;;;;5.13;3.67;;;;;;;21.63;58.24;96829.94;10372196;28;20135;-31
2023/06/26 11:52:52;;;;;;;12.85;4.10;;;;;;;21.79;58.33;96823.84;10371145;28;20050;-30
2023/06/26 11:57:54;;;;;;;5.93;3.70;;;;;;;21.76;57.31;96823.03;10378946;28;20073;-30
2023/06/26 12:02:55;;;;;;;8.73;5.22;;;;;;;21.64;57.42;96820.59;10382519;28;20058;-31
2023/06/26 12:07:57;;;;;;;6.83;3.30;;;;;;;21.58;57.78;96813.00;10393530;28;20058;-30
2023/06/26 12:12:58;;;;;;;7.78;3.90;;;;;;;21.56;58.08;96815.56;10370546;28;20065;-30
2023/06/26 12:17:59;;;;;;;7.47;4.22;;;;;;;21.53;57.93;96813.06;10376601;28;20033;-30
2023/06/26 12:22:59;;;;;;;7.80;3.93;;;;;;;21.54;57.99;96819.84;10362693;28;20515;-31
2023/06/26 12:28:00;;;;;;;6.13;4.27;;;;;;;21.52;58.35;96819.03;10392936;28;20038;-30
2023/06/26 12:33:00;;;;;;;7.20;4.37;;;;;;;21.55;58.69;96829.16;10370003;28;20311;-31
2023/06/26 12:38:00;;;;;;;8.23;4.47;;;;;;;21.75;58.36;96822.19;10384531;28;20029;-30
2023/06/26 12:43:02;;;;;;;6.83;3.90;;;;;;;21.79;57.98;96828.09;10377924;28;20046;-30
2023/06/26 12:48:12;;;;;;;5.88;3.72;;;;;;;21.68;57.45;96829.91;10356989;28;20040;-32
2023/06/26 12:53:15;;;;;;;3.85;3.45;;;;;;;21.61;57.75;96818.91;10369318;28;20034;-30
2023/06/26 12:58:17;;;;;;;4.35;3.95;;;;;;;21.58;57.78;96820.66;10375257;28;20034;-31
2023/06/26 13:03:17;;;;;;;6.00;4.00;;;;;;;21.55;58.07;96824.06;10368224;28;20064;-30
2023/06/26 13:08:18;;;;;;;4.43;3.23;;;;;;;21.53;58.04;96828.34;10376730;28;20037;-30
2023/06/26 13:13:19;;;;;;;4.15;3.38;;;;;;;21.52;57.94;96818.16;10375487;28;20289;-31
2023/06/26 13:18:19;;;;;;;4.57;3.57;;;;;;;21.52;58.01;96819.03;10384206;28;20045;-31
2023/06/26 13:23:23;;;;;;;4.03;3.63;;;;;;;21.70;58.38;96818.84;10378903;28;20349;-31
2023/06/26 13:28:23;;;;;;;4.93;4.07;;;;;;;21.83;57.88;96815.31;10366476;28;20125;-31
2023/06/26 13:33:26;;;;;;;5.20;3.87;;;;;;;21.77;57.76;96802.63;10368410;28;20037;-31
2023/06/26 13:38:27;;;;;;;3.50;2.72;;;;;;;21.63;57.70;96811.28;10379921;28;20040;-30
2023/06/26 13:43:28;;;;;;;5.80;3.40;;;;;;;21.52;58.02;96787.59;10358454;28;20498;-31
2023/06/26 13:48:29;;;;;;;5.72;3.50;;;;;;;21.56;58.18;96802.00;10375552;28;20272;-30
2023/06/26 13:53:29;;;;;;;5.95;3.78;;;;;;;21.55;58.01;96795.22;10365540;28;20034;-30
2023/06/26 13:58:32;;;;;;;4.50;3.20;;;;;;;21.55;58.23;96797.78;10369888;28;20445;-30
2023/06/26 14:03:32;;;;;;;4.07;3.67;;;;;;;21.52;58.13;96793.53;10377924;28;20033;-30
2023/06/26 14:08:32;;;;;;;5.57;4.47;;;;;;;21.61;58.67;96797.69;10374528;28;20073;-30
2023/06/26 14:13:33;;;;;;;4.43;3.70;;;;;;;21.80;58.47;96792.38;10380764;28;20033;-31
2023/06/26 14:18:34;;;;;;;4.33;3.63;;;;;;;21.84;57.94;96799.16;10395753;28;20057;-30
2023/06/26 14:23:35;;;;;;;5.10;3.28;;;;;;;21.71;57.82;96797.59;10374132;28;20037;-31
2023/06/26 14:28:35;;;;;;;5.07;3.50;;;;;;;21.62;57.98;96799.34;10387473;28;20037;-30
2023/06/26 14:33:36;;;;;;;5.33;3.30;;;;;;;21.58;58.19;96793.47;10370300;28;20075;-31
2023/06/26 14:38:36;;;;;;;4.45;3.47;;;;;;;21.55;58.02;96792.66;10375757;28;20438;-30
2023/06/26 14:43:38;;;;;;;5.13;3.63;;;;;;;21.54;58.41;96786.72;10374239;28;20087;-31
2023/06/26 14:48:38;;;;;;;4.22;3.78;;;;;;;21.54;58.18;96796.91;10373165;28;20115;-30
2023/06/26 14:53:39;;;;;;;4.37;3.33;;;;;;;21.54;58.47;96799.47;10373746;28;20103;-31
2023/06/26 14:58:39;;;;;;;3.87;3.30;;;;;;;21.71;58.46;96795.03;10384273;28;20033;-31
2023/06/26 15:03:39;;;;;;;5.40;3.77;;;;;;;21.85;58.40;96798.28;10380307;28;20036;-30
2023/06/26 15:08:40;;;;;;;4.67;3.63;;;;;;;21.80;58.10;96794.94;10385476;28;20029;-30
2023/06/26 15:13:40;;;;;;;4.05;3.22;;;;;;;21.67;57.93;96798.50;10372044;28;20033;-31
2023/06/26 15:18:41;;;;;;;4.67;3.60;;;;;;;21.60;58.16;96790.91;10372652;28;20363;-31
2023/06/26 15:23:41;;;;;;;4.93;3.35;;;;;;;21.57;58.17;96799.41;10377802;28;20034;-30
2023/06/26 15:28:42;;;;;;;3.40;3.10;;;;;;;21.53;58.34;96795.22;10375601;28;20045;-30
2023/06/26 15:33:42;;;;;;;3.97;3.10;;;;;;;21.54;58.52;96788.41;10376209;28;20548;-30
2023/06/26 15:38:42;;;;;;;3.50;3.13;;;;;;;21.53;58.40;96785.03;10370535;28;20304;-30
2023/06/26 15:43:44;;;;;;;4.80;3.40;;;;;;;21.60;59.14;96786.66;10380092;28;20049;-31
2023/06/26 15:48:44;;;;;;;3.70;3.17;;;;;;;21.82;58.49;96792.38;10386453;28;20347;-30
2023/06/26 15:53:45;;;;;;;5.27;3.57;;;;;;;21.86;58.17;96784.69;10363525;28;20042;-31
2023/06/26 15:58:46;;;;;;;4.03;3.05;;;;;;;21.73;58.17;96792.50;10386141;28;20124;-30
2023/06/26 16:03:47;;;;;;;4.15;3.33;;;;;;;21.67;58.18;96782.34;10369988;28;20121;-30
2023/06/26 16:08:48;;;;;;;4.65;3.08;;;;;;;21.64;58.18;96788.28;10370383;28;20458;-30
2023/06/26 16:13:49;;;;;;;4.47;2.95;;;;;;;21.60;58.29;96794.31;10378207;28;20038;-30
2023/06/26 16:18:49;;;;;;;30.60;6.07;;;;;;;21.54;60.72;96794.34;10378130;28;20038;-30
2023/06/26 16:23:49;;;;;;;8.10;3.33;;;;;;;21.56;61.73;96807.91;10386662;28;20433;-30
2023/06/26 16:28:50;;;;;;;15.93;5.27;;;;;;;21.81;65.73;96806.81;10391512;28;20287;-31
2023/06/26 16:33:50;;;;;;;15.48;3.80;;;;;;;21.96;63.00;96808.34;10361277;28;20034;-30
2023/06/26 16:38:50;;;;;;;16.13;4.43;;;;;;;22.05;62.41;96800.59;10348471;28;20038;-30
2023/06/26 16:43:51;;;;;;;6.93;4.20;;;;;;;21.90;62.96;96806.72;10332680;28;20285;-31
2023/06/26 16:48:53;;;;;;;12.10;4.13;;;;;;;21.82;62.53;96817.88;10376911;28;20052;-31
2023/06/26 16:53:53;;;;;;;8.60;4.20;;;;;;;21.76;61.19;96816.25;10383093;28;20044;-31
2023/06/26 16:58:54;;;;;;;12.00;3.80;;;;;;;21.70;60.87;96833.28;10372712;28;20380;-31
2023/06/26 17:03:54;;;;;;;8.37;3.57;;;;;;;21.69;61.00;96831.59;10355620;28;20568;-31
2023/06/26 17:08:55;;;;;;;8.38;3.97;;;;;;;21.65;60.65;96830.78;10356022;28;20034;-30
2023/06/26 17:13:55;;;;;;;8.37;3.67;;;;;;;21.64;60.41;96838.44;10379363;28;20029;-31
2023/06/26 17:18:55;;;;;;;6.40;3.70;;;;;;;21.84;60.63;96847.59;10375478;28;20033;-31
2023/06/26 17:23:56;;;;;;;7.40;3.43;;;;;;;22.03;61.15;96840.53;10372737;28;20046;-31
2023/06/26 17:28:57;;;;;;;9.00;3.75;;;;;;;21.91;60.74;96853.44;10376568;28;20183;-31
2023/06/26 17:33:57;;;;;;;6.50;3.97;;;;;;;21.78;60.18;96852.75;10374811;28;20529;-31
2023/06/26 17:39:00;;;;;;;3.80;3.20;;;;;;;21.75;60.24;96857.88;10352568;28;20092;-30
2023/06/26 17:44:00;;;;;;;7.03;3.78;;;;;;;21.73;59.55;96864.69;10336011;28;20062;-31
2023/06/26 17:49:01;;;;;;;6.13;3.63;;;;;;;21.69;60.86;96868.13;10353748;28;20022;-31
2023/06/26 17:54:01;;;;;;;7.72;3.95;;;;;;;21.69;59.99;96867.28;10342010;28;20026;-30
2023/06/26 17:59:01;;;;;;;10.87;4.03;;;;;;;21.67;60.40;96882.59;10333281;28;20030;-31
2023/06/26 18:04:03;;;;;;;6.60;3.63;;;;;;;21.89;60.29;96891.69;10327841;28;20049;-31
2023/06/26 18:09:04;;;;;;;4.53;3.05;;;;;;;21.99;59.70;96903.47;10334030;28;20066;-31
2023/06/26 18:14:04;;;;;;;7.75;3.60;;;;;;;21.87;59.64;96902.75;10339462;28;20049;-31
2023/06/26 18:19:05;;;;;;;4.55;3.22;;;;;;;21.76;59.58;96900.34;10360689;28;20040;-30
2023/06/26 18:24:05;;;;;;;5.23;3.57;;;;;;;21.70;59.58;96912.28;10368107;28;20030;-30
2023/06/26 18:29:06;;;;;;;5.80;3.22;;;;;;;21.67;59.39;96908.09;10363143;28;20034;-31
2023/06/26 18:34:06;;;;;;;5.53;3.70;;;;;;;21.63;59.30;96916.56;10375290;28;20490;-31
2023/06/26 18:39:06;;;;;;;5.00;2.83;;;;;;;21.61;59.49;96923.38;10363495;28;20093;-31
2023/06/26 18:44:07;;;;;;;5.47;3.22;;;;;;;21.66;60.22;96921.66;10368828;28;20095;-31
2023/06/26 18:49:07;;;;;;;9.40;4.13;;;;;;;21.87;59.57;96934.22;10359067;28;20044;-31
2023/06/26 18:54:08;;;;;;;5.35;3.42;;;;;;;21.94;59.08;96925.66;10398727;28;20106;-31
2023/06/26 18:59:08;;;;;;;5.87;2.93;;;;;;;21.79;59.11;96933.44;10398666;28;20053;-30
2023/06/26 19:04:09;;;;;;;6.77;2.90;;;;;;;21.75;59.04;96929.25;10390885;28;20102;-31
2023/06/26 19:09:10;;;;;;;5.03;2.60;;;;;;;21.71;59.40;96932.66;10370535;28;20041;-31
2023/06/26 19:14:10;;;;;;;6.80;3.20;;;;;;;21.68;59.45;96942.03;10398685;28;20284;-31
2023/06/26 19:19:10;;;;;;;4.40;2.80;;;;;;;21.67;59.12;96956.50;10385841;28;20038;-30
2023/06/26 19:24:11;;;;;;;4.72;2.53;;;;;;;21.64;59.25;96956.47;10399638;28;20075;-31
2023/06/26 19:29:11;;;;;;;6.45;2.75;;;;;;;21.70;59.33;96970.91;10389877;28;20034;-31
2023/06/26 19:34:13;;;;;;;5.80;3.65;;;;;;;21.90;57.64;96969.03;10390377;28;20045;-30
2023/06/26 19:39:13;;;;;;;7.03;3.70;;;;;;;21.92;57.10;96963.06;10387033;28;20038;-31
2023/06/26 19:44:13;;;;;;;4.13;2.57;;;;;;;21.84;57.88;96972.50;10400838;28;20025;-31
2023/06/26 19:49:14;;;;;;;6.73;2.73;;;;;;;21.74;58.26;96970.84;10387971;28;20025;-31
2023/06/26 19:54:14;;;;;;;9.83;2.93;;;;;;;21.69;58.45;96985.34;10393813;28;20041;-32
2023/06/26 19:59:14;;;;;;;4.10;2.50;;;;;;;21.64;58.59;96992.16;10401363;28;20029;-31
2023/06/26 20:04:15;;;;;;;4.50;2.67;;;;;;;21.63;58.58;97005.75;10351421;28;20048;-30
2023/06/26 20:09:15;;;;;;;4.43;2.55;;;;;;;21.60;58.42;97000.69;10391891;28;20460;-31
2023/06/26 20:14:16;;;;;;;3.10;2.10;;;;;;;21.68;58.17;97009.16;10385632;28;20103;-31
2023/06/26 20:19:16;;;;;;;3.60;2.50;;;;;;;21.88;57.43;97016.66;10385116;28;20047;-30
2023/06/26 20:24:17;;;;;;;2.55;2.22;;;;;;;21.92;57.51;97023.41;10394949;28;20033;-30
2023/06/26 20:29:17;;;;;;;4.67;1.97;;;;;;;21.80;57.82;97034.53;10378675;28;20034;-31
2023/06/26 20:34:18;;;;;;;3.30;2.47;;;;;;;21.72;58.11;97036.28;10376414;28;20341;-30
2023/06/26 20:39:18;;;;;;;3.90;2.92;;;;;;;21.66;58.13;97038.88;10384533;28;20564;-31
2023/06/26 20:44:19;;;;;;;2.93;2.20;;;;;;;21.63;58.24;97038.88;10393818;28;20047;-31
2023/06/26 20:49:19;;;;;;;5.03;2.40;;;;;;;21.60;58.47;97041.47;10381157;28;20025;-31
2023/06/26 20:54:20;;;;;;;3.35;2.42;;;;;;;21.60;58.27;97046.56;10374672;28;20655;-30
2023/06/26 20:59:20;;;;;;;4.85;2.25;;;;;;;21.69;57.53;97046.53;10392062;28;20025;-30
2023/06/26 21:04:20;;;;;;;2.43;2.23;;;;;;;21.88;57.14;97053.16;10392571;28;20033;-31
2023/06/26 21:09:21;;;;;;;2.20;2.00;;;;;;;21.90;57.04;97061.63;10391319;28;20029;-30
2023/06/26 21:14:21;;;;;;;3.77;2.17;;;;;;;21.79;57.22;97062.56;10377392;28;20029;-30
2023/06/26 21:19:22;;;;;;;2.90;2.00;;;;;;;21.72;57.82;97071.16;10372713;28;20296;-31
2023/06/26 21:24:22;;;;;;;2.95;1.90;;;;;;;21.64;57.91;97073.69;10375090;28;20029;-31
2023/06/26 21:29:23;;;;;;;2.22;2.03;;;;;;;21.57;57.75;97064.41;10399896;28;20065;-31
2023/06/26 21:34:23;;;;;;;2.63;2.40;;;;;;;21.59;57.98;97077.13;10375328;28;20513;-30
2023/06/26 21:39:24;;;;;;;6.22;2.28;;;;;;;21.59;57.85;97077.13;10389015;28;20033;-31
2023/06/26 21:44:25;;;;;;;3.80;1.80;;;;;;;21.68;56.95;97085.63;10368879;28;20108;-30
2023/06/26 21:49:25;;;;;;;4.63;2.10;;;;;;;21.86;55.51;97095.69;10376868;28;20042;-30
2023/06/26 21:54:25;;;;;;;2.03;1.57;;;;;;;21.89;55.95;97100.75;10367875;28;20038;-31
2023/06/26 21:59:26;;;;;;;2.23;1.80;;;;;;;21.78;56.38;97115.28;10382476;28;20551;-30
2023/06/26 22:04:26;;;;;;;4.72;2.05;;;;;;;21.69;57.07;97117.88;10390658;28;20041;-30
2023/06/26 22:09:27;;;;;;;2.93;1.97;;;;;;;21.64;57.35;97118.75;10362278;28;20029;-31
2023/06/26 22:14:27;;;;;;;3.07;1.90;;;;;;;21.60;57.51;97107.72;10373668;28;20322;-31
2023/06/26 22:19:27;;;;;;;3.70;2.00;;;;;;;21.57;57.59;97107.72;10374798;28;20121;-30
2023/06/26 22:24:28;;;;;;;4.13;1.80;;;;;;;21.56;57.76;97100.94;10377359;28;20033;-31
2023/06/26 22:29:28;;;;;;;3.17;1.80;;;;;;;21.67;56.66;97106.88;10385742;28;20041;-31
2023/06/26 22:34:28;;;;;;;2.37;1.47;;;;;;;21.84;55.71;97102.50;10397739;28;20045;-30
2023/06/26 22:39:29;;;;;;;2.03;1.50;;;;;;;21.88;55.24;97104.16;10391043;28;20030;-30
2023/06/26 22:44:29;;;;;;;4.50;1.83;;;;;;;21.78;56.10;97102.53;10397325;28;20295;-31
2023/06/26 22:49:29;;;;;;;3.90;1.87;;;;;;;21.68;56.87;97100.91;10390072;28;20029;-30
2023/06/26 22:54:31;;;;;;;3.53;1.80;;;;;;;21.63;57.20;97107.69;10389269;28;20409;-30
2023/06/26 22:59:31;;;;;;;2.15;1.80;;;;;;;21.62;57.46;97110.22;10373092;28;20387;-30
2023/06/26 23:04:32;;;;;;;2.67;1.60;;;;;;;21.66;56.36;97109.41;10373597;28;20445;-31
2023/06/26 23:09:32;;;;;;;2.87;1.80;;;;;;;21.60;57.17;97107.72;10388280;28;20038;-33
2023/06/26 23:14:33;;;;;;;5.47;1.60;;;;;;;21.64;55.52;97114.47;10371467;28;20092;-32
2023/06/26 23:19:36;;;;;;;3.08;1.75;;;;;;;21.83;54.79;97105.03;10372737;28;20057;-31